DW6826 Charleston SC US current weather conditions

sailwx.info

Wind from 043

Air temperature 18.3° C
Dewpoint 16.3° C

Last reported at 2019-Dec-09 23:04 UTC.
Time now 2019-Dec-09 23:20 UTC

Location: N 32°47' W 079°59'.
View on Google Maps.

See reports from other nearby stations

  
Tides and Currents Weather Stations Pressure Air Temp Water Temp Dewpoint Dewpoint Depression Visibility Wind Speed Wind Dir Waves Ship Positions
date/time (UTC)wind fromknots sea level pressurealtimeterstation pressurevisibilityair tempwater tempwave heightnotes
2019-Dec-09 23:04 043 18.3
2019-Dec-09 22:49 043 18.9
2019-Dec-09 22:19 043 18.9
2019-Dec-09 22:04 043 19.4
2019-Dec-09 21:34 043 0 19.4
2019-Dec-09 21:18 031 0 20.0
2019-Dec-09 21:03 031 20.0
2019-Dec-09 20:49 288 0 20.0
2019-Dec-09 20:33 250 0 20.6
2019-Dec-09 20:19 264 0 20.6
2019-Dec-09 20:04 182 0 21.1
2019-Dec-09 19:48 053 0 21.1
2019-Dec-09 19:34 185 21.7
2019-Dec-09 19:04 231 0 21.7
2019-Dec-09 18:48 217 0 21.1
2019-Dec-09 18:33 217 0 21.1
2019-Dec-09 18:19 079 20.0
2019-Dec-09 18:04 195 19.4
2019-Dec-09 17:48 104 0 18.3
2019-Dec-09 17:37 069 0 17.8
2019-Dec-09 17:18 060 0 17.2
2019-Dec-09 17:03 084 16.7
2019-Dec-09 16:49 094 0 16.7
2019-Dec-09 16:33 185 0 16.1
2019-Dec-09 16:18 041 15.0
2019-Dec-09 16:04 076 0 14.4
2019-Dec-09 15:48 100 14.4
2019-Dec-09 15:34 062 13.9
2019-Dec-09 15:18 062 13.3
2019-Dec-09 15:03 062 12.8
2019-Dec-09 14:49 062 12.8
2019-Dec-09 14:34 062 12.2
2019-Dec-09 14:19 062 12.2
2019-Dec-09 14:03 062 12.2
2019-Dec-09 13:49 062 12.2
2019-Dec-09 13:33 062 11.7
2019-Dec-09 13:19 062 11.7
2019-Dec-09 13:04 062 11.7
2019-Dec-09 12:49 062 11.1
2019-Dec-09 12:34 060 11.1
2019-Dec-09 12:19 060 11.1
2019-Dec-09 12:03 060 11.1
2019-Dec-09 11:49 060 11.1
2019-Dec-09 11:34 060 11.1
2019-Dec-09 11:19 060 11.1
2019-Dec-09 11:03 060 11.1
2019-Dec-09 10:49 060 11.1
2019-Dec-09 10:34 060 11.1
2019-Dec-09 10:18 060 11.1
2019-Dec-09 09:49 079 0 11.1
2019-Dec-09 09:33 073 0 11.1
2019-Dec-09 09:18 062 10.6
2019-Dec-09 09:04 147 10.6
2019-Dec-09 08:49 151 10.6
2019-Dec-09 08:34 087 0 10.6
2019-Dec-09 08:19 149 10.6
2019-Dec-09 08:04 055 10.6
2019-Dec-09 07:48 058 0 10.6
2019-Dec-09 07:19 067 11.1
2019-Dec-09 07:04 089 11.1
2019-Dec-09 06:48 107 11.1
2019-Dec-09 06:33 096 11.1
2019-Dec-09 06:18 096 11.1
2019-Dec-09 06:03 096 11.1
2019-Dec-09 05:48 110 11.1
2019-Dec-09 05:33 110 11.1
2019-Dec-09 05:19 108 11.7
2019-Dec-09 05:03 108 0 11.7
2019-Dec-09 04:49 076 11.7
2019-Dec-09 04:34 073 11.7
2019-Dec-09 04:18 066 11.7
2019-Dec-09 04:03 072 11.7
2019-Dec-09 03:49 113 11.7
2019-Dec-09 03:34 123 12.2
2019-Dec-09 03:19 083 12.2
2019-Dec-09 03:03 083 12.2
2019-Dec-09 02:49 086 12.2
2019-Dec-09 02:34 086 12.2
2019-Dec-09 02:18 032 0 12.2
2019-Dec-09 02:03 080 12.8
2019-Dec-09 01:49 080 12.8
2019-Dec-09 01:34 089 12.8
2019-Dec-09 01:19 161 12.8
2019-Dec-09 00:48 052 12.8
2019-Dec-09 00:34 086 12.8
2019-Dec-09 00:19 086 13.3
2019-Dec-09 00:03 086 13.3
2019-Dec-08 23:49 086 13.9
2019-Dec-08 23:34 086 13.9
2019-Dec-08 23:18 086 13.9
2019-Dec-08 23:04 084 13.9
2019-Dec-08 22:48 084 13.9
2019-Dec-08 22:33 084 14.4
2019-Dec-08 22:19 084 14.4
2019-Dec-08 22:04 084 15.0
2019-Dec-08 21:48 084 15.0
2019-Dec-08 21:33 103 15.6
2019-Dec-08 21:19 101 15.6
2019-Dec-08 21:04 247 16.1
2019-Dec-08 20:49 082 16.1
2019-Dec-08 20:34 104 16.1
2019-Dec-08 20:04 347 0 16.1
2019-Dec-08 19:48 066 0 16.1
2019-Dec-08 19:34 120 0 15.6
2019-Dec-08 19:18 090 0 15.6
2019-Dec-08 19:04 048 0 15.6
2019-Dec-08 18:48 096 0 15.6
2019-Dec-08 18:33 086 0 15.6
2019-Dec-08 18:19 072 1 15.6
2019-Dec-08 17:49 077 0 15.0
2019-Dec-08 17:33 075 0 14.4
2019-Dec-08 17:18 021 0 13.9
2019-Dec-08 17:03 193 1 13.3
2019-Dec-08 16:49 073 0 13.3
2019-Dec-08 16:34 066 0 12.8
2019-Dec-08 16:04 283 1 11.7
2019-Dec-08 15:48 019 0 11.1
2019-Dec-08 15:33 056 0 11.1
2019-Dec-08 15:18 067 1 10.6
2019-Dec-08 15:03 076 0 10.0
2019-Dec-08 14:49 082 0 9.4
2019-Dec-08 14:33 090 8.9
2019-Dec-08 14:19 117 0 8.3
2019-Dec-08 14:03 127 0 7.2
2019-Dec-08 13:49 179 0 6.7
2019-Dec-08 13:34 094 6.1
2019-Dec-08 13:18 089 0 5.6
2019-Dec-08 13:03 082 0 5.6
2019-Dec-08 12:49 075 5.6
2019-Dec-08 12:33 060 5.6
2019-Dec-08 12:04 145 5.6
2019-Dec-08 11:49 056 6.1
2019-Dec-08 11:34 103 6.1
2019-Dec-08 11:18 267 0 6.1
2019-Dec-08 11:04 124 6.1
2019-Dec-08 10:48 076 6.1
2019-Dec-08 10:33 120 0 6.7
2019-Dec-08 10:18 101 6.7
2019-Dec-08 10:03 080 0 6.7
2019-Dec-08 09:49 360 7.2
2019-Dec-08 09:34 049 7.2
2019-Dec-08 09:18 080 7.2
2019-Dec-08 09:03 080 7.8
2019-Dec-08 08:48 091 7.8
2019-Dec-08 08:19 124 7.8
2019-Dec-08 08:04 296 7.8
2019-Dec-08 07:34 089 8.3
2019-Dec-08 07:04 123 8.3
2019-Dec-08 06:48 086 0 8.9
2019-Dec-08 06:33 106 8.9
2019-Dec-08 06:18 034 8.9
2019-Dec-08 06:03 107 8.9
2019-Dec-08 05:48 082 9.4
2019-Dec-08 05:33 127 9.4
2019-Dec-08 05:19 103 9.4
2019-Dec-08 05:03 084 9.4
2019-Dec-08 04:48 354 10.0
2019-Dec-08 04:34 261 10.0
2019-Dec-08 04:18 125 10.0
2019-Dec-08 04:03 099 10.6
2019-Dec-08 03:49 120 10.6
2019-Dec-08 03:34 087 11.1
2019-Dec-08 03:18 254 11.1
2019-Dec-08 03:04 079 11.1
2019-Dec-08 02:48 096 11.1
2019-Dec-08 02:33 096 11.7
2019-Dec-08 02:18 091 11.7
2019-Dec-08 02:03 354 11.7
2019-Dec-08 01:49 354 12.2
2019-Dec-08 01:34 104 12.2
2019-Dec-08 01:18 104 12.2
2019-Dec-08 01:04 118 12.2
2019-Dec-08 00:48 100 12.8
2019-Dec-08 00:19 093 12.8
2019-Dec-08 00:04 128 0 12.8
2019-Dec-07 23:48 178 0 12.8
2019-Dec-07 23:34 080 13.3
2019-Dec-07 23:19 034 13.3
2019-Dec-07 23:03 134 13.9